METAR Data
IDs: Format: Raw Decoded Include TAF

Data at: 1347 UTC 14 Dec 2019

PARY 141256Z AUTO 07009KT 10SM CLR M12/M15 A2962 RMK AO2 SLP051 T11171150 FZRANO
PARY 141156Z AUTO 08014KT 10SM CLR M12/M15 A2963 RMK AO2 SLP053 T11171150 11106 21117 58002 FZRANO
PARY 141056Z AUTO 08013KT 10SM CLR M12/M15 A2963 RMK AO2 SLP053 T11171150 FZRANO
PARY 140956Z AUTO 07011KT 10SM CLR M12/M15 A2963 RMK AO2 SLP055 T11171150 FZRANO
PARY 140856Z AUTO 08008KT 10SM CLR M11/M14 A2963 RMK AO2 SLP055 T11111144 52005 FZRANO
PARY 140756Z AUTO 08010KT 10SM SCT085 M11/M14 A2962 RMK AO2 SLP051 T11111144 410891128 FZRANO
PARY 140656Z AUTO 08010KT 10SM BKN090 M12/M14 A2963 RMK AO2 SLP053 T11171144 FZRANO
PARY 140556Z AUTO 06009KT 10SM BKN090 M11/M14 A2962 RMK AO2 SLP049 T11061144 11089 21111 53012 FZRANO
PARY 140456Z AUTO 09012KT 10SM SCT070 M09/M13 A2960 RMK AO2 SLP042 T10941133 FZRANO
PARY 140356Z AUTO 08012KT 10SM BKN070 BKN095 M09/M13 A2959 RMK AO2 SLP038 T10941133 FZRANO
PARY 140256Z AUTO 09014G19KT 10SM CLR M09/M14 A2958 RMK AO2 SLP037 T10941139 51017 FZRANO
PARY 140156Z AUTO 09014KT 10SM CLR M11/M14 A2957 RMK AO2 SLP032 T11061139 FZRANO
PARY 140056Z AUTO 09013KT 10SM OVC070 M11/M14 A2955 RMK AO2 SLP027 T11061139 FZRANO
PARY 132356Z AUTO 09015G21KT 10SM FEW100 M11/M14 A2953 RMK AO2 SLP020 T11061144 11106 21128 53017 FZRANO
PARY 132256Z AUTO 09018KT 10SM BKN100 M11/M15 A2951 RMK AO2 SLP012 T11111150 FZRANO
PARY 132156Z AUTO 08016KT 10SM SCT095 M12/M15 A2949 RMK AO2 SLP004 T11171150 FZRANO
PARY 132056Z AUTO 09013KT 10SM CLR M12/M16 A2948 RMK AO2 SLP002 T11171156 53029 FZRANO
PARY 131956Z AUTO 09015KT 10SM SCT120 M12/M16 A2945 RMK AO2 SLP992 T11171156 FZRANO
PARY 131856Z AUTO 08011KT 10SM SCT080 M12/M16 A2941 RMK AO2 SLP980 T11221156 FZRANO
PARY 131756Z AUTO 07012KT 10SM FEW050 BKN090 BKN110 M12/M16 A2939 RMK AO2 SLP972 T11221156 11117 21128 53013 FZRANO
PARY 131656Z AUTO 08009KT 10SM SCT023 OVC065 M12/M16 A2938
PARY 131556Z AUTO 08007KT 10SM OVC025 M12/M16 A2936 RMK AO2 SLP962 T11171156 FZRANO
PARY 131517Z AUTO 07008KT 10SM OVC029 M12/M16 A2935 RMK AO2 FZRANO
PARY 131456Z AUTO 07008KT 10SM OVC031 M12/M16 A2935 RMK AO2 SLP959 T11221161 53004 FZRANO
PARY 131356Z AUTO 08007KT 10SM OVC035 M12/M16 A2934 RMK AO2 SLP956 T11221161 FZRANO
PARY 131256Z AUTO 08007KT 10SM CLR M12/M16 A2935 RMK AO2 SLP957 T11221161 FZRANO
PARY 131156Z AUTO 07008KT 10SM OVC040 M12/M16 A2934 RMK AO2 SLP954 T11171161 11111 21122 56005 FZRANO
PARY 131056Z AUTO 06005KT 10SM OVC038 M12/M16 A2935 RMK AO2 SLP956 T11171161 FZRANO
PARY 130956Z AUTO 07006KT 10SM OVC040 M12/M16 A2934 RMK AO2 SLP955 T11171161 FZRANO
PARY 130856Z AUTO 08006KT 10SM FEW040 M12/M16 A2936 RMK AO2 SLP960 T11171161 55005 FZRANO
PARY 130756Z AUTO 07010KT 10SM CLR M12/M16 A2935 RMK AO2 SLP957 T11171156 410721122 FZRANO
PARY 130656Z AUTO 07008KT 10SM CLR M12/M15 A2936 RMK AO2 SLP963 T11171150 FZRANO
PARY 130556Z AUTO 06006KT 10SM CLR M12/M15 A2937 RMK AO2 SLP965 T11171150 11100 21117 58003 FZRANO
PARY 130456Z AUTO 07006KT 10SM CLR M12/M14 A2938 RMK AO2 SLP968 T11171139 FZRANO
PARY 130356Z AUTO 07008KT 10SM CLR M11/M14 A2938 RMK AO2 SLP968 T11111139 FZRANO
PARY 130256Z AUTO 07007KT 10SM CLR M11/M13 A2938 RMK AO2 SLP967 T11111133 58005 FZRANO
PARY 130156Z AUTO 07008KT 10SM CLR M11/M13 A2939 RMK AO2 SLP971 T11111133 FZRANO